sensor_id;sensor_type;location;lat;lon;timestamp;temperature;humidity
22532;DHT22;11432;46.924;7.114;2023-11-19T00:02:08;6.40;99.90
22532;DHT22;11432;46.924;7.114;2023-11-19T00:04:39;6.40;99.90
22532;DHT22;11432;46.924;7.114;2023-11-19T00:07:05;6.30;99.90
22532;DHT22;11432;46.924;7.114;2023-11-19T00:09:33;6.30;99.90
22532;DHT22;11432;46.924;7.114;2023-11-19T00:11:59;6.30;99.90
22532;DHT22;11432;46.924;7.114;2023-11-19T00:14:26;6.20;99.90
22532;DHT22;11432;46.924;7.114;2023-11-19T00:16:52;6.20;99.90
22532;DHT22;11432;46.924;7.114;2023-11-19T00:19:19;6.20;99.90
22532;DHT22;11432;46.924;7.114;2023-11-19T00:21:44;6.10;99.90
22532;DHT22;11432;46.924;7.114;2023-11-19T00:24:11;6.10;99.90
22532;DHT22;11432;46.924;7.114;2023-11-19T00:26:38;6.00;99.90
22532;DHT22;11432;46.924;7.114;2023-11-19T00:29:04;6.10;99.90
22532;DHT22;11432;46.924;7.114;2023-11-19T00:31:30;6.00;99.90
22532;DHT22;11432;46.924;7.114;2023-11-19T00:33:55;6.00;99.90
22532;DHT22;11432;46.924;7.114;2023-11-19T00:36:21;6.00;99.90
22532;DHT22;11432;46.924;7.114;2023-11-19T00:38:49;6.00;99.90
22532;DHT22;11432;46.924;7.114;2023-11-19T00:41:15;6.00;99.90
22532;DHT22;11432;46.924;7.114;2023-11-19T00:43:42;6.00;99.90
22532;DHT22;11432;46.924;7.114;2023-11-19T00:46:08;6.00;99.90
22532;DHT22;11432;46.924;7.114;2023-11-19T00:48:34;6.00;99.90
22532;DHT22;11432;46.924;7.114;2023-11-19T00:50:59;6.10;99.90
22532;DHT22;11432;46.924;7.114;2023-11-19T00:53:25;6.10;99.90
22532;DHT22;11432;46.924;7.114;2023-11-19T00:55:50;6.20;99.90
22532;DHT22;11432;46.924;7.114;2023-11-19T00:58:17;6.20;99.90
22532;DHT22;11432;46.924;7.114;2023-11-19T01:00:43;6.20;99.90
22532;DHT22;11432;46.924;7.114;2023-11-19T01:03:10;6.20;99.90
22532;DHT22;11432;46.924;7.114;2023-11-19T01:05:36;6.30;99.90
22532;DHT22;11432;46.924;7.114;2023-11-19T01:08:02;6.30;99.90
22532;DHT22;11432;46.924;7.114;2023-11-19T01:10:30;6.40;99.90
22532;DHT22;11432;46.924;7.114;2023-11-19T01:12:56;6.40;99.90
22532;DHT22;11432;46.924;7.114;2023-11-19T01:15:21;6.50;99.90
22532;DHT22;11432;46.924;7.114;2023-11-19T01:17:48;6.50;99.90
22532;DHT22;11432;46.924;7.114;2023-11-19T01:20:14;6.50;99.90
22532;DHT22;11432;46.924;7.114;2023-11-19T01:22:40;6.50;99.90
22532;DHT22;11432;46.924;7.114;2023-11-19T01:25:06;6.60;99.90
22532;DHT22;11432;46.924;7.114;2023-11-19T01:27:32;6.60;99.90
22532;DHT22;11432;46.924;7.114;2023-11-19T01:30:00;6.60;99.90
22532;DHT22;11432;46.924;7.114;2023-11-19T01:32:28;6.70;99.90
22532;DHT22;11432;46.924;7.114;2023-11-19T01:34:54;6.70;99.90
22532;DHT22;11432;46.924;7.114;2023-11-19T01:37:19;6.70;99.90
22532;DHT22;11432;46.924;7.114;2023-11-19T01:39:45;6.80;99.90
22532;DHT22;11432;46.924;7.114;2023-11-19T01:42:11;6.80;99.90
22532;DHT22;11432;46.924;7.114;2023-11-19T01:44:38;6.80;99.90
22532;DHT22;11432;46.924;7.114;2023-11-19T01:47:03;6.80;99.90
22532;DHT22;11432;46.924;7.114;2023-11-19T01:49:31;6.80;99.90
22532;DHT22;11432;46.924;7.114;2023-11-19T01:51:57;6.90;99.90
22532;DHT22;11432;46.924;7.114;2023-11-19T01:54:23;7.00;99.90
22532;DHT22;11432;46.924;7.114;2023-11-19T01:56:49;7.00;99.90
22532;DHT22;11432;46.924;7.114;2023-11-19T01:59:15;7.00;99.90
22532;DHT22;11432;46.924;7.114;2023-11-19T02:01:42;7.10;99.90
22532;DHT22;11432;46.924;7.114;2023-11-19T02:04:08;7.20;99.90
22532;DHT22;11432;46.924;7.114;2023-11-19T02:06:34;7.30;99.90
22532;DHT22;11432;46.924;7.114;2023-11-19T02:09:02;7.40;99.90
22532;DHT22;11432;46.924;7.114;2023-11-19T02:11:33;7.40;99.90
22532;DHT22;11432;46.924;7.114;2023-11-19T02:14:00;7.40;99.90
22532;DHT22;11432;46.924;7.114;2023-11-19T02:16:26;7.50;99.90
22532;DHT22;11432;46.924;7.114;2023-11-19T02:18:51;7.60;99.90
22532;DHT22;11432;46.924;7.114;2023-11-19T02:21:17;7.70;99.90
22532;DHT22;11432;46.924;7.114;2023-11-19T02:23:43;7.80;99.90
22532;DHT22;11432;46.924;7.114;2023-11-19T02:29:15;7.70;99.90
22532;DHT22;11432;46.924;7.114;2023-11-19T02:31:40;7.60;99.90
22532;DHT22;11432;46.924;7.114;2023-11-19T02:34:06;7.60;99.90
22532;DHT22;11432;46.924;7.114;2023-11-19T02:36:32;7.60;99.90
22532;DHT22;11432;46.924;7.114;2023-11-19T02:38:58;7.60;99.90
22532;DHT22;11432;46.924;7.114;2023-11-19T02:41:24;7.70;99.90
22532;DHT22;11432;46.924;7.114;2023-11-19T02:43:50;7.70;99.90
22532;DHT22;11432;46.924;7.114;2023-11-19T02:46:15;7.80;99.90
22532;DHT22;11432;46.924;7.114;2023-11-19T02:48:43;7.80;99.90
22532;DHT22;11432;46.924;7.114;2023-11-19T02:51:09;7.80;99.90
22532;DHT22;11432;46.924;7.114;2023-11-19T02:53:35;7.90;99.90
22532;DHT22;11432;46.924;7.114;2023-11-19T02:56:02;7.90;99.90
22532;DHT22;11432;46.924;7.114;2023-11-19T02:58:37;7.60;99.90
22532;DHT22;11432;46.924;7.114;2023-11-19T03:01:03;7.90;99.90
22532;DHT22;11432;46.924;7.114;2023-11-19T03:03:39;7.90;99.90
22532;DHT22;11432;46.924;7.114;2023-11-19T03:06:06;8.00;99.90
22532;DHT22;11432;46.924;7.114;2023-11-19T03:08:35;8.00;99.90
22532;DHT22;11432;46.924;7.114;2023-11-19T03:11:01;8.00;99.90
22532;DHT22;11432;46.924;7.114;2023-11-19T03:13:27;8.00;99.90
22532;DHT22;11432;46.924;7.114;2023-11-19T03:15:53;8.00;99.90
22532;DHT22;11432;46.924;7.114;2023-11-19T03:18:19;8.00;99.90
22532;DHT22;11432;46.924;7.114;2023-11-19T03:20:46;7.90;99.90
22532;DHT22;11432;46.924;7.114;2023-11-19T03:23:12;8.00;99.90
22532;DHT22;11432;46.924;7.114;2023-11-19T03:25:37;8.00;99.90
22532;DHT22;11432;46.924;7.114;2023-11-19T03:28:03;8.10;99.90
22532;DHT22;11432;46.924;7.114;2023-11-19T03:30:30;8.10;99.90
22532;DHT22;11432;46.924;7.114;2023-11-19T03:32:56;8.20;99.90
22532;DHT22;11432;46.924;7.114;2023-11-19T03:35:22;8.20;99.90
22532;DHT22;11432;46.924;7.114;2023-11-19T03:37:49;8.30;99.90
22532;DHT22;11432;46.924;7.114;2023-11-19T03:40:14;8.30;99.90
22532;DHT22;11432;46.924;7.114;2023-11-19T03:42:40;8.40;99.90
22532;DHT22;11432;46.924;7.114;2023-11-19T03:45:07;8.40;99.90
22532;DHT22;11432;46.924;7.114;2023-11-19T03:47:35;8.30;99.90
22532;DHT22;11432;46.924;7.114;2023-11-19T03:50:01;8.30;99.90
22532;DHT22;11432;46.924;7.114;2023-11-19T03:52:28;8.30;99.90
22532;DHT22;11432;46.924;7.114;2023-11-19T03:54:55;8.30;99.90
22532;DHT22;11432;46.924;7.114;2023-11-19T03:57:21;8.30;99.90
22532;DHT22;11432;46.924;7.114;2023-11-19T03:59:47;8.40;99.90
22532;DHT22;11432;46.924;7.114;2023-11-19T04:02:13;8.60;99.90
22532;DHT22;11432;46.924;7.114;2023-11-19T04:04:39;8.80;99.90
22532;DHT22;11432;46.924;7.114;2023-11-19T04:07:05;8.90;99.90
22532;DHT22;11432;46.924;7.114;2023-11-19T04:09:31;9.20;99.90
22532;DHT22;11432;46.924;7.114;2023-11-19T04:11:58;9.40;99.90
22532;DHT22;11432;46.924;7.114;2023-11-19T04:14:24;9.50;99.90
22532;DHT22;11432;46.924;7.114;2023-11-19T04:16:50;9.50;99.90
22532;DHT22;11432;46.924;7.114;2023-11-19T04:19:16;9.50;99.90
22532;DHT22;11432;46.924;7.114;2023-11-19T04:21:42;9.60;99.90
22532;DHT22;11432;46.924;7.114;2023-11-19T04:24:09;9.60;99.90
22532;DHT22;11432;46.924;7.114;2023-11-19T04:26:41;9.60;99.90
22532;DHT22;11432;46.924;7.114;2023-11-19T04:29:09;9.50;99.90
22532;DHT22;11432;46.924;7.114;2023-11-19T04:31:34;9.70;99.90
22532;DHT22;11432;46.924;7.114;2023-11-19T04:34:00;9.70;99.90
22532;DHT22;11432;46.924;7.114;2023-11-19T04:36:26;9.70;99.90
22532;DHT22;11432;46.924;7.114;2023-11-19T04:38:51;9.80;99.90
22532;DHT22;11432;46.924;7.114;2023-11-19T04:41:17;9.80;99.90
22532;DHT22;11432;46.924;7.114;2023-11-19T04:43:43;9.80;99.90
22532;DHT22;11432;46.924;7.114;2023-11-19T04:46:09;9.80;99.90
22532;DHT22;11432;46.924;7.114;2023-11-19T04:48:35;9.70;99.90
22532;DHT22;11432;46.924;7.114;2023-11-19T04:51:01;9.80;99.90
22532;DHT22;11432;46.924;7.114;2023-11-19T04:53:26;9.80;99.90
22532;DHT22;11432;46.924;7.114;2023-11-19T04:55:52;9.80;99.90
22532;DHT22;11432;46.924;7.114;2023-11-19T04:58:17;9.80;99.90
22532;DHT22;11432;46.924;7.114;2023-11-19T05:00:44;9.80;99.90
22532;DHT22;11432;46.924;7.114;2023-11-19T05:03:10;9.80;99.90
22532;DHT22;11432;46.924;7.114;2023-11-19T05:05:36;9.80;99.90
22532;DHT22;11432;46.924;7.114;2023-11-19T05:08:02;9.70;99.90
22532;DHT22;11432;46.924;7.114;2023-11-19T05:10:28;9.60;99.90
22532;DHT22;11432;46.924;7.114;2023-11-19T05:12:53;9.60;99.90
22532;DHT22;11432;46.924;7.114;2023-11-19T05:15:21;9.60;99.90
22532;DHT22;11432;46.924;7.114;2023-11-19T05:17:47;9.50;99.90
22532;DHT22;11432;46.924;7.114;2023-11-19T05:20:12;9.50;99.90
22532;DHT22;11432;46.924;7.114;2023-11-19T05:22:42;9.50;99.90
22532;DHT22;11432;46.924;7.114;2023-11-19T05:25:08;9.40;99.90
22532;DHT22;11432;46.924;7.114;2023-11-19T05:27:35;9.70;99.90
22532;DHT22;11432;46.924;7.114;2023-11-19T05:30:02;9.60;99.90
22532;DHT22;11432;46.924;7.114;2023-11-19T05:32:28;9.60;99.90
22532;DHT22;11432;46.924;7.114;2023-11-19T05:34:53;9.50;99.90
22532;DHT22;11432;46.924;7.114;2023-11-19T05:37:19;9.60;99.90
22532;DHT22;11432;46.924;7.114;2023-11-19T05:39:45;9.60;99.90
22532;DHT22;11432;46.924;7.114;2023-11-19T05:42:11;9.60;99.90
22532;DHT22;11432;46.924;7.114;2023-11-19T05:44:36;9.60;99.90
22532;DHT22;11432;46.924;7.114;2023-11-19T05:47:03;9.70;99.90
22532;DHT22;11432;46.924;7.114;2023-11-19T05:49:29;9.70;99.90
22532;DHT22;11432;46.924;7.114;2023-11-19T05:51:54;9.80;99.90
22532;DHT22;11432;46.924;7.114;2023-11-19T05:54:21;9.80;99.90
22532;DHT22;11432;46.924;7.114;2023-11-19T05:56:48;9.70;99.90
22532;DHT22;11432;46.924;7.114;2023-11-19T05:59:14;9.80;99.90
22532;DHT22;11432;46.924;7.114;2023-11-19T06:01:43;9.80;99.90
22532;DHT22;11432;46.924;7.114;2023-11-19T06:04:09;9.80;99.90
22532;DHT22;11432;46.924;7.114;2023-11-19T06:06:36;9.70;99.90
22532;DHT22;11432;46.924;7.114;2023-11-19T06:09:02;9.90;99.90
22532;DHT22;11432;46.924;7.114;2023-11-19T06:11:32;10.00;99.90
22532;DHT22;11432;46.924;7.114;2023-11-19T06:13:58;10.10;99.90
22532;DHT22;11432;46.924;7.114;2023-11-19T06:16:24;10.40;99.90
22532;DHT22;11432;46.924;7.114;2023-11-19T06:18:49;10.60;99.90
22532;DHT22;11432;46.924;7.114;2023-11-19T06:21:15;10.70;99.90
22532;DHT22;11432;46.924;7.114;2023-11-19T06:23:41;10.80;99.90
22532;DHT22;11432;46.924;7.114;2023-11-19T06:26:07;10.90;99.90
22532;DHT22;11432;46.924;7.114;2023-11-19T06:28:34;10.90;99.90
22532;DHT22;11432;46.924;7.114;2023-11-19T06:30:59;11.00;99.90
22532;DHT22;11432;46.924;7.114;2023-11-19T06:33:25;11.20;99.90
22532;DHT22;11432;46.924;7.114;2023-11-19T06:35:52;11.20;99.90
22532;DHT22;11432;46.924;7.114;2023-11-19T06:38:18;11.20;99.90
22532;DHT22;11432;46.924;7.114;2023-11-19T06:40:44;11.10;99.90
22532;DHT22;11432;46.924;7.114;2023-11-19T06:43:09;11.10;99.90
22532;DHT22;11432;46.924;7.114;2023-11-19T06:45:35;11.10;99.90
22532;DHT22;11432;46.924;7.114;2023-11-19T06:48:02;11.10;99.90
22532;DHT22;11432;46.924;7.114;2023-11-19T06:50:31;11.00;99.90
22532;DHT22;11432;46.924;7.114;2023-11-19T06:52:57;11.00;99.90
22532;DHT22;11432;46.924;7.114;2023-11-19T06:55:23;11.00;99.90
22532;DHT22;11432;46.924;7.114;2023-11-19T06:57:48;11.00;99.90
22532;DHT22;11432;46.924;7.114;2023-11-19T07:00:14;11.00;99.90
22532;DHT22;11432;46.924;7.114;2023-11-19T07:02:40;11.00;99.90
22532;DHT22;11432;46.924;7.114;2023-11-19T07:05:06;11.00;99.90
22532;DHT22;11432;46.924;7.114;2023-11-19T07:07:32;10.90;99.90
22532;DHT22;11432;46.924;7.114;2023-11-19T07:09:58;10.90;99.90
22532;DHT22;11432;46.924;7.114;2023-11-19T07:12:24;10.90;99.90
22532;DHT22;11432;46.924;7.114;2023-11-19T07:14:52;10.90;99.90
22532;DHT22;11432;46.924;7.114;2023-11-19T07:17:18;10.90;99.90
22532;DHT22;11432;46.924;7.114;2023-11-19T07:19:44;10.90;99.90
22532;DHT22;11432;46.924;7.114;2023-11-19T07:22:09;10.90;99.90
22532;DHT22;11432;46.924;7.114;2023-11-19T07:24:39;10.90;99.90
22532;DHT22;11432;46.924;7.114;2023-11-19T07:27:04;10.90;99.90
22532;DHT22;11432;46.924;7.114;2023-11-19T07:29:30;10.90;99.90
22532;DHT22;11432;46.924;7.114;2023-11-19T07:31:57;11.00;99.90
22532;DHT22;11432;46.924;7.114;2023-11-19T07:34:22;11.10;99.90
22532;DHT22;11432;46.924;7.114;2023-11-19T07:36:48;11.20;99.90
22532;DHT22;11432;46.924;7.114;2023-11-19T07:39:14;11.20;99.90
22532;DHT22;11432;46.924;7.114;2023-11-19T07:41:40;11.20;99.90
22532;DHT22;11432;46.924;7.114;2023-11-19T07:44:05;11.30;99.90
22532;DHT22;11432;46.924;7.114;2023-11-19T07:46:32;11.30;99.90
22532;DHT22;11432;46.924;7.114;2023-11-19T07:48:58;11.30;99.90
22532;DHT22;11432;46.924;7.114;2023-11-19T07:51:23;11.30;99.90
22532;DHT22;11432;46.924;7.114;2023-11-19T07:53:49;11.40;99.90
22532;DHT22;11432;46.924;7.114;2023-11-19T07:56:15;11.40;99.90
22532;DHT22;11432;46.924;7.114;2023-11-19T07:58:40;11.50;99.90
22532;DHT22;11432;46.924;7.114;2023-11-19T08:01:07;11.50;99.90
22532;DHT22;11432;46.924;7.114;2023-11-19T08:03:32;11.50;99.90
22532;DHT22;11432;46.924;7.114;2023-11-19T08:06:00;11.50;99.90
22532;DHT22;11432;46.924;7.114;2023-11-19T08:08:26;11.60;99.90
22532;DHT22;11432;46.924;7.114;2023-11-19T08:10:52;11.60;99.90
22532;DHT22;11432;46.924;7.114;2023-11-19T08:13:20;11.60;99.90
22532;DHT22;11432;46.924;7.114;2023-11-19T08:15:46;11.60;99.90
22532;DHT22;11432;46.924;7.114;2023-11-19T08:18:12;11.60;99.90
22532;DHT22;11432;46.924;7.114;2023-11-19T08:20:38;11.70;99.90
22532;DHT22;11432;46.924;7.114;2023-11-19T08:23:04;11.80;99.90
22532;DHT22;11432;46.924;7.114;2023-11-19T08:25:30;11.90;99.90
22532;DHT22;11432;46.924;7.114;2023-11-19T08:27:56;11.90;99.90
22532;DHT22;11432;46.924;7.114;2023-11-19T08:30:21;12.00;99.90
22532;DHT22;11432;46.924;7.114;2023-11-19T08:32:47;12.00;99.90
22532;DHT22;11432;46.924;7.114;2023-11-19T08:35:13;12.10;99.90
22532;DHT22;11432;46.924;7.114;2023-11-19T08:37:38;12.20;99.90
22532;DHT22;11432;46.924;7.114;2023-11-19T08:40:04;12.30;99.90
22532;DHT22;11432;46.924;7.114;2023-11-19T08:42:30;12.30;99.90
22532;DHT22;11432;46.924;7.114;2023-11-19T08:44:56;12.40;99.90
22532;DHT22;11432;46.924;7.114;2023-11-19T08:47:21;12.50;99.90
22532;DHT22;11432;46.924;7.114;2023-11-19T08:49:51;12.50;99.90
22532;DHT22;11432;46.924;7.114;2023-11-19T08:52:20;12.60;99.90
22532;DHT22;11432;46.924;7.114;2023-11-19T08:54:46;12.60;99.90
22532;DHT22;11432;46.924;7.114;2023-11-19T08:57:11;12.70;99.90
22532;DHT22;11432;46.924;7.114;2023-11-19T08:59:37;12.60;99.90
22532;DHT22;11432;46.924;7.114;2023-11-19T09:02:05;12.60;99.90
22532;DHT22;11432;46.924;7.114;2023-11-19T09:04:32;12.60;99.90
22532;DHT22;11432;46.924;7.114;2023-11-19T09:06:58;12.60;99.90
22532;DHT22;11432;46.924;7.114;2023-11-19T09:09:23;12.70;99.90
22532;DHT22;11432;46.924;7.114;2023-11-19T09:11:49;12.70;99.90
22532;DHT22;11432;46.924;7.114;2023-11-19T09:14:15;12.70;99.90
22532;DHT22;11432;46.924;7.114;2023-11-19T09:16:41;12.80;99.90
22532;DHT22;11432;46.924;7.114;2023-11-19T09:19:06;12.80;99.90
22532;DHT22;11432;46.924;7.114;2023-11-19T09:21:32;12.70;99.90
22532;DHT22;11432;46.924;7.114;2023-11-19T09:23:59;12.70;99.90
22532;DHT22;11432;46.924;7.114;2023-11-19T09:26:25;12.80;99.90
22532;DHT22;11432;46.924;7.114;2023-11-19T09:28:51;12.80;99.90
22532;DHT22;11432;46.924;7.114;2023-11-19T09:31:17;12.80;99.90
22532;DHT22;11432;46.924;7.114;2023-11-19T09:33:43;12.80;99.90
22532;DHT22;11432;46.924;7.114;2023-11-19T09:36:11;12.90;99.90
22532;DHT22;11432;46.924;7.114;2023-11-19T09:38:42;13.00;99.90
22532;DHT22;11432;46.924;7.114;2023-11-19T09:41:09;13.00;99.90
22532;DHT22;11432;46.924;7.114;2023-11-19T09:43:36;13.00;99.90
22532;DHT22;11432;46.924;7.114;2023-11-19T09:46:05;13.00;99.90
22532;DHT22;11432;46.924;7.114;2023-11-19T09:48:33;13.00;99.90
22532;DHT22;11432;46.924;7.114;2023-11-19T09:51:01;13.00;99.90
22532;DHT22;11432;46.924;7.114;2023-11-19T09:53:27;13.00;99.90
22532;DHT22;11432;46.924;7.114;2023-11-19T09:55:54;13.10;99.90
22532;DHT22;11432;46.924;7.114;2023-11-19T09:58:20;13.20;99.90
22532;DHT22;11432;46.924;7.114;2023-11-19T10:00:47;13.30;99.90
22532;DHT22;11432;46.924;7.114;2023-11-19T10:03:14;13.40;99.90
22532;DHT22;11432;46.924;7.114;2023-11-19T10:05:39;13.70;99.90
22532;DHT22;11432;46.924;7.114;2023-11-19T10:08:06;13.80;99.90
22532;DHT22;11432;46.924;7.114;2023-11-19T10:10:33;13.90;99.90
22532;DHT22;11432;46.924;7.114;2023-11-19T10:13:00;13.90;99.90
22532;DHT22;11432;46.924;7.114;2023-11-19T10:15:26;13.90;99.90
22532;DHT22;11432;46.924;7.114;2023-11-19T10:17:55;13.90;99.90
22532;DHT22;11432;46.924;7.114;2023-11-19T10:20:21;13.90;99.90
22532;DHT22;11432;46.924;7.114;2023-11-19T10:22:47;13.80;99.90
22532;DHT22;11432;46.924;7.114;2023-11-19T10:25:24;13.80;99.90
22532;DHT22;11432;46.924;7.114;2023-11-19T10:27:54;14.00;99.90
22532;DHT22;11432;46.924;7.114;2023-11-19T10:30:24;14.00;99.90
22532;DHT22;11432;46.924;7.114;2023-11-19T10:33:08;14.00;99.90
22532;DHT22;11432;46.924;7.114;2023-11-19T10:35:36;13.90;99.90
22532;DHT22;11432;46.924;7.114;2023-11-19T10:38:13;14.00;99.90
22532;DHT22;11432;46.924;7.114;2023-11-19T10:40:40;14.10;99.90
22532;DHT22;11432;46.924;7.114;2023-11-19T10:43:06;14.20;99.90
22532;DHT22;11432;46.924;7.114;2023-11-19T10:45:36;14.30;99.90
22532;DHT22;11432;46.924;7.114;2023-11-19T10:48:05;14.40;99.90
22532;DHT22;11432;46.924;7.114;2023-11-19T10:50:33;14.30;99.90
22532;DHT22;11432;46.924;7.114;2023-11-19T10:52:59;14.40;99.90
22532;DHT22;11432;46.924;7.114;2023-11-19T10:55:30;14.50;99.90
22532;DHT22;11432;46.924;7.114;2023-11-19T10:58:00;14.50;99.90
22532;DHT22;11432;46.924;7.114;2023-11-19T11:00:37;14.60;99.90
22532;DHT22;11432;46.924;7.114;2023-11-19T11:03:11;14.50;99.90
22532;DHT22;11432;46.924;7.114;2023-11-19T11:05:38;14.50;99.90
22532;DHT22;11432;46.924;7.114;2023-11-19T11:08:06;14.50;99.90
22532;DHT22;11432;46.924;7.114;2023-11-19T11:10:42;14.60;99.90
22532;DHT22;11432;46.924;7.114;2023-11-19T11:13:08;15.10;1.00
22532;DHT22;11432;46.924;7.114;2023-11-19T11:15:35;14.80;99.90
22532;DHT22;11432;46.924;7.114;2023-11-19T11:18:02;14.70;99.90
22532;DHT22;11432;46.924;7.114;2023-11-19T11:20:32;14.70;99.90
22532;DHT22;11432;46.924;7.114;2023-11-19T11:28:46;14.60;99.90
22532;DHT22;11432;46.924;7.114;2023-11-19T11:31:29;14.40;99.90
22532;DHT22;11432;46.924;7.114;2023-11-19T11:39:41;14.10;99.90
22532;DHT22;11432;46.924;7.114;2023-11-19T11:45:07;14.10;1.00
22532;DHT22;11432;46.924;7.114;2023-11-19T11:50:24;14.20;1.00
22532;DHT22;11432;46.924;7.114;2023-11-19T11:55:28;14.10;1.00
22532;DHT22;11432;46.924;7.114;2023-11-19T11:57:57;14.10;1.00
22532;DHT22;11432;46.924;7.114;2023-11-19T12:00:31;14.00;1.00
22532;DHT22;11432;46.924;7.114;2023-11-19T12:03:00;14.00;1.00
22532;DHT22;11432;46.924;7.114;2023-11-19T12:05:26;14.00;1.00
22532;DHT22;11432;46.924;7.114;2023-11-19T12:10:24;14.00;1.00
22532;DHT22;11432;46.924;7.114;2023-11-19T12:12:53;14.00;1.00
22532;DHT22;11432;46.924;7.114;2023-11-19T12:15:19;14.10;1.00
22532;DHT22;11432;46.924;7.114;2023-11-19T12:17:50;14.10;1.00
22532;DHT22;11432;46.924;7.114;2023-11-19T12:20:17;14.10;1.00
22532;DHT22;11432;46.924;7.114;2023-11-19T12:22:45;14.00;1.00
22532;DHT22;11432;46.924;7.114;2023-11-19T12:25:12;14.10;1.00
22532;DHT22;11432;46.924;7.114;2023-11-19T12:27:45;14.10;1.00
22532;DHT22;11432;46.924;7.114;2023-11-19T12:30:11;14.00;1.00
22532;DHT22;11432;46.924;7.114;2023-11-19T12:32:41;13.90;1.00
22532;DHT22;11432;46.924;7.114;2023-11-19T12:35:10;13.90;1.00
22532;DHT22;11432;46.924;7.114;2023-11-19T12:37:43;13.80;1.00
22532;DHT22;11432;46.924;7.114;2023-11-19T12:40:24;13.70;1.00
22532;DHT22;11432;46.924;7.114;2023-11-19T12:42:51;13.60;1.00
22532;DHT22;11432;46.924;7.114;2023-11-19T12:45:18;13.50;1.00
22532;DHT22;11432;46.924;7.114;2023-11-19T12:47:45;13.40;1.00
22532;DHT22;11432;46.924;7.114;2023-11-19T12:50:15;13.30;63.90
22532;DHT22;11432;46.924;7.114;2023-11-19T12:52:43;13.20;99.90
22532;DHT22;11432;46.924;7.114;2023-11-19T12:55:27;13.10;99.90
22532;DHT22;11432;46.924;7.114;2023-11-19T12:57:53;13.00;99.90
22532;DHT22;11432;46.924;7.114;2023-11-19T13:00:21;12.80;99.90
22532;DHT22;11432;46.924;7.114;2023-11-19T13:02:49;12.80;99.90
22532;DHT22;11432;46.924;7.114;2023-11-19T13:05:32;12.70;99.90
22532;DHT22;11432;46.924;7.114;2023-11-19T13:08:08;12.70;99.90
22532;DHT22;11432;46.924;7.114;2023-11-19T13:13:19;12.50;99.90
22532;DHT22;11432;46.924;7.114;2023-11-19T13:15:45;12.50;99.90
22532;DHT22;11432;46.924;7.114;2023-11-19T13:18:11;12.60;99.90
22532;DHT22;11432;46.924;7.114;2023-11-19T13:20:37;12.70;99.90
22532;DHT22;11432;46.924;7.114;2023-11-19T13:23:05;12.80;99.90
22532;DHT22;11432;46.924;7.114;2023-11-19T13:25:31;12.90;99.90
22532;DHT22;11432;46.924;7.114;2023-11-19T13:28:00;13.20;99.90
22532;DHT22;11432;46.924;7.114;2023-11-19T13:30:26;14.10;99.90
22532;DHT22;11432;46.924;7.114;2023-11-19T13:32:52;14.30;1.00
22532;DHT22;11432;46.924;7.114;2023-11-19T13:35:18;14.10;1.00
22532;DHT22;11432;46.924;7.114;2023-11-19T13:37:46;13.90;1.00
22532;DHT22;11432;46.924;7.114;2023-11-19T13:40:12;13.80;1.00
22532;DHT22;11432;46.924;7.114;2023-11-19T13:42:41;13.80;26.00
22532;DHT22;11432;46.924;7.114;2023-11-19T13:45:08;13.80;21.10
22532;DHT22;11432;46.924;7.114;2023-11-19T13:47:43;13.90;1.00
22532;DHT22;11432;46.924;7.114;2023-11-19T13:50:16;13.90;33.40
22532;DHT22;11432;46.924;7.114;2023-11-19T13:52:45;13.80;7.80
22532;DHT22;11432;46.924;7.114;2023-11-19T13:55:13;13.90;99.90
22532;DHT22;11432;46.924;7.114;2023-11-19T13:57:40;13.80;99.90
22532;DHT22;11432;46.924;7.114;2023-11-19T14:00:07;13.70;92.40
22532;DHT22;11432;46.924;7.114;2023-11-19T14:02:43;13.70;30.50
22532;DHT22;11432;46.924;7.114;2023-11-19T14:05:09;13.60;1.00
22532;DHT22;11432;46.924;7.114;2023-11-19T14:07:37;13.60;33.30
22532;DHT22;11432;46.924;7.114;2023-11-19T14:10:03;13.50;99.90
22532;DHT22;11432;46.924;7.114;2023-11-19T14:12:30;13.40;99.90
22532;DHT22;11432;46.924;7.114;2023-11-19T14:14:56;13.50;99.90
22532;DHT22;11432;46.924;7.114;2023-11-19T14:17:21;13.60;99.90
22532;DHT22;11432;46.924;7.114;2023-11-19T14:19:47;13.70;98.80
22532;DHT22;11432;46.924;7.114;2023-11-19T14:22:13;13.80;62.10
22532;DHT22;11432;46.924;7.114;2023-11-19T14:24:38;13.90;20.90
22532;DHT22;11432;46.924;7.114;2023-11-19T14:27:06;14.00;1.00
22532;DHT22;11432;46.924;7.114;2023-11-19T14:29:31;14.10;1.00
22532;DHT22;11432;46.924;7.114;2023-11-19T14:31:57;13.90;1.00
22532;DHT22;11432;46.924;7.114;2023-11-19T14:34:24;13.90;1.00
22532;DHT22;11432;46.924;7.114;2023-11-19T14:36:51;13.90;1.00
22532;DHT22;11432;46.924;7.114;2023-11-19T14:39:17;14.00;1.00
22532;DHT22;11432;46.924;7.114;2023-11-19T14:41:43;14.00;1.00
22532;DHT22;11432;46.924;7.114;2023-11-19T14:44:12;14.00;1.00
22532;DHT22;11432;46.924;7.114;2023-11-19T14:46:38;14.00;1.00
22532;DHT22;11432;46.924;7.114;2023-11-19T14:49:03;14.00;1.00
22532;DHT22;11432;46.924;7.114;2023-11-19T14:51:30;14.00;1.00
22532;DHT22;11432;46.924;7.114;2023-11-19T14:53:55;14.00;1.00
22532;DHT22;11432;46.924;7.114;2023-11-19T14:56:21;13.90;1.00
22532;DHT22;11432;46.924;7.114;2023-11-19T14:58:47;13.80;1.00
22532;DHT22;11432;46.924;7.114;2023-11-19T15:01:13;13.70;1.00
22532;DHT22;11432;46.924;7.114;2023-11-19T15:06:06;13.60;1.00
22532;DHT22;11432;46.924;7.114;2023-11-19T15:08:32;13.60;1.00
22532;DHT22;11432;46.924;7.114;2023-11-19T15:10:58;13.60;1.00
22532;DHT22;11432;46.924;7.114;2023-11-19T15:13:24;13.50;1.00
22532;DHT22;11432;46.924;7.114;2023-11-19T15:15:49;13.50;1.00
22532;DHT22;11432;46.924;7.114;2023-11-19T15:18:15;13.50;1.00
22532;DHT22;11432;46.924;7.114;2023-11-19T15:20:42;13.50;1.00
22532;DHT22;11432;46.924;7.114;2023-11-19T15:23:15;13.40;1.10
22532;DHT22;11432;46.924;7.114;2023-11-19T15:25:41;13.30;19.80
22532;DHT22;11432;46.924;7.114;2023-11-19T15:28:07;13.30;25.20
22532;DHT22;11432;46.924;7.114;2023-11-19T15:30:33;13.10;76.40
22532;DHT22;11432;46.924;7.114;2023-11-19T15:32:59;13.00;99.90
22532;DHT22;11432;46.924;7.114;2023-11-19T15:35:24;12.90;99.90
22532;DHT22;11432;46.924;7.114;2023-11-19T15:37:50;12.90;99.90
22532;DHT22;11432;46.924;7.114;2023-11-19T15:40:16;12.80;99.90
22532;DHT22;11432;46.924;7.114;2023-11-19T15:42:41;12.70;99.90
22532;DHT22;11432;46.924;7.114;2023-11-19T15:45:09;12.70;99.90
22532;DHT22;11432;46.924;7.114;2023-11-19T15:47:35;12.70;99.90
22532;DHT22;11432;46.924;7.114;2023-11-19T15:50:01;12.60;99.90
22532;DHT22;11432;46.924;7.114;2023-11-19T15:52:28;12.60;99.90
22532;DHT22;11432;46.924;7.114;2023-11-19T15:54:55;12.50;99.90
22532;DHT22;11432;46.924;7.114;2023-11-19T15:57:20;12.50;99.90
22532;DHT22;11432;46.924;7.114;2023-11-19T15:59:46;12.50;99.90
22532;DHT22;11432;46.924;7.114;2023-11-19T16:02:13;12.40;99.90
22532;DHT22;11432;46.924;7.114;2023-11-19T16:04:39;12.40;99.90
22532;DHT22;11432;46.924;7.114;2023-11-19T16:07:05;12.40;99.90
22532;DHT22;11432;46.924;7.114;2023-11-19T16:09:31;12.40;99.90